Time;durP1;ratioP1;P1;durP2;ratioP2;P2;SDS_P1;SDS_P2;PMS_P1;PMS_P2;Temp;Humidity;BMP_temperature;BMP_pressure;BME280_temperature;BME280_humidity;BME280_pressure;Samples;Min_cycle;Max_cycle;Signal;HPM_P1;HPM_P2
2021/03/26 00:02:16;;;;;;;43.65;29.45;;;;;;;7.28;85.94;100651.06;5055701;28;20052;-73
2021/03/26 00:04:43;;;;;;;45.10;28.67;;;;;;;7.27;85.53;100644.91;5056764;28;20056;-72
2021/03/26 00:07:09;;;;;;;45.95;29.80;;;;;;;7.28;85.89;100651.06;5055664;28;20430;-73
2021/03/26 00:09:36;;;;;;;46.00;30.35;;;;;;;7.26;85.67;100647.63;5055496;28;20052;-73
2021/03/26 00:12:09;;;;;;;41.47;30.23;;;;;;;7.24;85.99;100639.72;5055229;28;20230;-72
2021/03/26 00:14:35;;;;;;;44.33;29.15;;;;;;;7.14;85.89;100639.19;5055667;28;20053;-73
2021/03/26 00:17:02;;;;;;;47.67;31.65;;;;;;;7.18;86.01;100634.63;5055613;28;20350;-75
2021/03/26 00:19:28;;;;;;;44.78;30.58;;;;;;;7.16;85.85;100636.50;5054112;28;20045;-72
2021/03/26 00:21:55;;;;;;;43.97;31.45;;;;;;;7.22;86.08;100635.38;5054956;28;20061;-74
2021/03/26 00:24:21;;;;;;;52.13;31.70;;;;;;;7.21;86.49;100634.53;5055085;28;20045;-72
2021/03/26 00:26:47;;;;;;;50.25;31.77;;;;;;;7.13;86.18;100629.50;5053927;28;20061;-73
2021/03/26 00:29:19;;;;;;;48.20;31.27;;;;;;;7.13;85.77;100645.44;5054804;28;20071;-72
2021/03/26 00:31:47;;;;;;;46.38;30.90;;;;;;;7.12;86.33;100648.16;5054634;28;20060;-72
2021/03/26 00:34:14;;;;;;;44.63;31.58;;;;;;;7.12;86.52;100646.38;5054687;28;20059;-73
2021/03/26 00:36:40;;;;;;;50.05;30.65;;;;;;;7.11;86.29;100636.69;5055062;28;20045;-74
2021/03/26 00:39:10;;;;;;;49.15;32.08;;;;;;;7.08;86.05;100639.44;5053992;28;20049;-72
2021/03/26 00:41:37;;;;;;;51.80;32.88;;;;;;;7.01;86.61;100636.16;5054971;28;20053;-72
2021/03/26 00:44:04;;;;;;;50.95;32.10;;;;;;;7.02;86.75;100634.38;5053688;28;20410;-73
2021/03/26 00:46:35;;;;;;;49.47;33.40;;;;;;;6.99;86.47;100624.75;5054950;28;20053;-73
2021/03/26 00:49:02;;;;;;;45.95;32.50;;;;;;;6.98;86.78;100623.00;5054804;28;20076;-72
2021/03/26 00:51:29;;;;;;;47.17;33.22;;;;;;;6.98;87.12;100630.13;5053624;28;20328;-73
2021/03/26 00:53:55;;;;;;;52.28;33.50;;;;;;;6.95;87.43;100622.25;5053472;28;20056;-71
2021/03/26 00:56:21;;;;;;;45.88;32.85;;;;;;;6.85;87.13;100622.63;5054901;28;20048;-73
2021/03/26 00:58:47;;;;;;;46.20;33.08;;;;;;;6.95;86.96;100622.25;5056189;28;20046;-72
2021/03/26 01:01:13;;;;;;;50.50;33.00;;;;;;;6.95;86.93;100622.25;5038971;28;20060;-71
2021/03/26 01:03:39;;;;;;;50.50;34.33;;;;;;;6.95;87.37;100622.25;5038349;28;20049;-72
2021/03/26 01:06:08;;;;;;;49.63;32.75;;;;;;;6.97;86.99;100620.44;5038614;28;20057;-72
2021/03/26 01:08:35;;;;;;;53.65;35.28;;;;;;;6.96;87.69;100613.41;5038331;28;20081;-72
2021/03/26 01:11:08;;;;;;;50.33;34.30;;;;;;;6.90;87.03;100615.34;5038640;28;20107;-73
2021/03/26 01:13:35;;;;;;;50.40;34.55;;;;;;;6.87;87.58;100614.63;5038358;28;20049;-74
2021/03/26 01:16:02;;;;;;;50.10;34.22;;;;;;;6.87;87.44;100615.47;5037447;28;20057;-73
2021/03/26 01:18:32;;;;;;;50.45;34.55;;;;;;;6.86;87.84;100613.72;5038301;28;20489;-72
2021/03/26 01:20:59;;;;;;;50.90;32.47;;;;;;;6.85;87.88;100605.81;5038406;28;20111;-72
2021/03/26 01:23:27;;;;;;;54.30;34.20;;;;;;;6.81;87.13;100614.84;5020821;28;20274;-74
2021/03/26 01:25:55;;;;;;;49.92;34.47;;;;;;;6.78;88.04;100600.78;5038345;28;20061;-73
2021/03/26 01:28:24;;;;;;;50.15;36.00;;;;;;;6.83;88.39;100608.56;5038269;28;20115;-73
2021/03/26 01:30:50;;;;;;;48.03;33.40;;;;;;;6.76;88.05;100601.75;5038116;28;20107;-74
2021/03/26 01:33:18;;;;;;;49.83;34.33;;;;;;;6.83;87.91;100608.56;5037965;28;20065;-73
2021/03/26 01:35:45;;;;;;;48.88;34.08;;;;;;;6.78;87.71;100602.56;5037923;28;20398;-74
2021/03/26 01:38:11;;;;;;;51.30;34.50;;;;;;;6.73;88.33;100585.94;5037140;28;20049;-74
2021/03/26 01:41:12;;;;;;;49.92;33.55;;;;;;;6.74;87.79;100591.19;5037808;28;20457;-74
2021/03/26 01:43:41;;;;;;;50.53;34.33;;;;;;;6.67;88.20;100584.41;5024879;28;20045;-74
2021/03/26 01:46:11;;;;;;;48.10;33.55;;;;;;;6.66;87.97;100593.28;5036724;28;20057;-74
2021/03/26 01:48:46;;;;;;;54.58;35.78;;;;;;;6.61;88.30;100587.28;5036777;28;20084;-75
2021/03/26 01:51:21;;;;;;;53.63;33.67;;;;;;;6.58;88.32;100582.94;5037655;28;20045;-73
2021/03/26 01:53:48;;;;;;;53.97;35.35;;;;;;;6.50;87.78;100580.56;5037973;28;20056;-73
2021/03/26 01:56:14;;;;;;;52.28;33.60;;;;;;;6.44;87.94;100575.53;5037455;28;20463;-72
2021/03/26 01:58:42;;;;;;;51.50;33.95;;;;;;;6.37;88.30;100558.97;5037825;28;20054;-73
2021/03/26 02:01:17;;;;;;;48.28;33.45;;;;;;;6.41;87.93;100569.44;5056075;28;20056;-73
2021/03/26 02:03:48;;;;;;;55.58;35.05;;;;;;;6.33;87.95;100573.25;5057662;28;20049;-73
2021/03/26 02:06:21;;;;;;;46.45;32.38;;;;;;;6.18;87.76;100560.56;5057370;28;20381;-72
2021/03/26 02:08:50;;;;;;;47.17;32.60;;;;;;;6.21;87.74;100565.75;5056556;28;20114;-71
2021/03/26 02:11:54;;;;;;;55.40;36.30;;;;;;;6.17;87.98;100564.13;5057681;28;20056;-71
2021/03/26 02:14:23;;;;;;;52.33;35.22;;;;;;;6.17;88.80;100561.47;5019132;28;20048;-74
2021/03/26 02:16:51;;;;;;;55.53;36.30;;;;;;;6.20;89.13;100553.41;5059690;28;20053;-76
2021/03/26 02:19:56;;;;;;;52.42;35.13;;;;;;;6.21;88.38;100560.47;5057363;28;20103;-73
2021/03/26 02:22:25;;;;;;;52.42;34.65;;;;;;;6.20;89.19;100556.06;5058536;28;20137;-74
2021/03/26 02:24:52;;;;;;;49.80;34.63;;;;;;;6.21;89.31;100555.16;5057105;28;20059;-75
2021/03/26 02:27:26;;;;;;;52.22;35.10;;;;;;;6.13;88.96;100554.56;5057242;28;20060;-74
2021/03/26 02:29:53;;;;;;;54.70;34.65;;;;;;;6.10;88.77;100547.59;5057061;28;20052;-72
2021/03/26 02:32:22;;;;;;;55.58;36.95;;;;;;;6.16;89.38;100550.00;5055626;28;20532;-72
2021/03/26 02:35:37;;;;;;;55.58;34.75;;;;;;;6.17;89.67;100553.53;5055966;28;20053;-73
2021/03/26 02:38:26;;;;;;;48.70;33.92;;;;;;;6.14;88.93;100551.00;5055929;28;20419;-72
2021/03/26 02:40:52;;;;;;;53.85;34.70;;;;;;;6.20;89.31;100553.41;5056805;28;20045;-75
2021/03/26 02:44:00;;;;;;;52.95;34.63;;;;;;;6.17;88.98;100546.47;5055978;28;20071;-75
2021/03/26 02:46:48;;;;;;;55.80;34.72;;;;;;;6.09;88.87;100544.06;5055507;28;20060;-74
2021/03/26 02:49:42;;;;;;;50.85;33.83;;;;;;;6.00;88.50;100540.84;5056701;28;20131;-74
2021/03/26 02:52:34;;;;;;;50.20;32.97;;;;;;;5.97;89.03;100541.84;5056386;28;20099;-71
2021/03/26 02:55:13;;;;;;;48.22;32.55;;;;;;;5.95;88.61;100547.19;5056487;28;20088;-73
2021/03/26 02:57:52;;;;;;;49.70;34.25;;;;;;;5.95;89.29;100541.03;5056510;28;20083;-72
2021/03/26 03:00:25;;;;;;;52.83;32.47;;;;;;;5.89;88.72;100544.75;5043873;28;20045;-72
2021/03/26 03:02:55;;;;;;;48.92;34.55;;;;;;;5.88;89.05;100535.06;5036643;28;20057;-74
2021/03/26 03:05:36;;;;;;;50.17;32.70;;;;;;;5.84;88.95;100538.75;5036209;28;20534;-73
2021/03/26 03:08:16;;;;;;;48.83;34.05;;;;;;;5.85;88.92;100535.19;5036402;28;20060;-72
2021/03/26 03:10:58;;;;;;;50.97;32.92;;;;;;;5.88;88.47;100540.38;5036046;28;20359;-73
2021/03/26 03:13:48;;;;;;;49.00;31.58;;;;;;;5.89;89.03;100534.16;5036319;28;20343;-73
2021/03/26 03:16:22;;;;;;;52.80;33.70;;;;;;;5.94;89.20;100528.72;5030708;28;20111;-73
2021/03/26 03:18:59;;;;;;;50.42;33.30;;;;;;;5.92;89.33;100531.41;5035012;28;20060;-74
2021/03/26 03:21:44;;;;;;;48.10;32.45;;;;;;;5.93;88.96;100529.59;5035769;28;20053;-73
2021/03/26 03:24:20;;;;;;;48.92;31.90;;;;;;;5.87;89.11;100522.75;5036097;28;20394;-75
2021/03/26 03:27:02;;;;;;;53.88;32.92;;;;;;;5.87;88.79;100527.19;5036020;28;20132;-73
2021/03/26 03:29:34;;;;;;;52.28;32.70;;;;;;;5.82;88.45;100520.25;5035968;28;20061;-71
2021/03/26 03:32:06;;;;;;;47.15;30.73;;;;;;;5.79;88.81;100524.81;5035543;28;20096;-74
2021/03/26 03:34:37;;;;;;;47.45;31.67;;;;;;;5.70;88.89;100515.41;5034813;28;20096;-74
2021/03/26 03:37:30;;;;;;;49.17;31.17;;;;;;;5.75;89.33;100516.09;5036061;28;20051;-73
2021/03/26 03:40:19;;;;;;;48.30;31.45;;;;;;;5.73;89.02;100510.00;5035659;28;20057;-72
2021/03/26 03:43:07;;;;;;;47.28;31.95;;;;;;;5.76;88.66;100516.94;5035722;28;20050;-72
2021/03/26 03:46:05;;;;;;;51.55;31.13;;;;;;;5.66;89.08;100519.09;5034643;28;20057;-71
2021/03/26 03:48:45;;;;;;;43.75;29.83;;;;;;;5.63;88.76;100505.94;5029485;28;20057;-73
2021/03/26 03:51:23;;;;;;;45.45;29.92;;;;;;;5.64;89.08;100511.19;5035443;28;20060;-72
2021/03/26 03:53:53;;;;;;;44.83;29.17;;;;;;;5.62;89.10;100506.88;5035714;28;20057;-72
2021/03/26 03:56:42;;;;;;;46.20;29.80;;;;;;;5.50;88.79;100506.34;5035427;28;20332;-71
2021/03/26 03:59:18;;;;;;;54.42;31.58;;;;;;;5.52;88.58;100509.84;5038274;28;20045;-73
2021/03/26 04:02:22;;;;;;;42.92;28.67;;;;;;;5.55;88.56;100514.13;5055232;28;20422;-74
2021/03/26 04:04:56;;;;;;;;;;;;;;;5.54;88.61;100508.00;5054461;28;20111;-72
2021/03/26 04:07:30;;;;;;;43.33;28.83;;;;;;;5.50;88.77;100508.16;5055473;28;20364;-72
2021/03/26 04:10:02;;;;;;;46.97;29.85;;;;;;;5.48;88.66;100507.31;5055340;28;20041;-74
2021/03/26 04:12:36;;;;;;;48.22;30.67;;;;;;;5.44;88.63;100506.56;5054440;28;20052;-72
2021/03/26 04:15:17;;;;;;;49.03;30.98;;;;;;;5.33;88.50;100490.19;5055351;28;20118;-74
2021/03/26 04:17:58;;;;;;;46.95;29.60;;;;;;;5.42;89.27;100506.63;5055259;28;20134;-73
2021/03/26 04:20:40;;;;;;;45.03;29.80;;;;;;;5.21;88.70;100475.59;5055137;28;20434;-73
2021/03/26 04:23:13;;;;;;;46.13;28.80;;;;;;;5.40;88.85;100507.59;5053962;28;20099;-74
2021/03/26 04:25:44;;;;;;;50.30;29.38;;;;;;;5.41;89.04;100498.75;5055039;28;20057;-73
2021/03/26 04:28:30;;;;;;;45.20;29.75;;;;;;;5.35;88.44;100496.31;5055390;28;20076;-72
2021/03/26 04:31:10;;;;;;;46.90;27.88;;;;;;;5.41;88.65;100494.28;5055517;28;20049;-72
2021/03/26 04:33:36;;;;;;;42.63;28.73;;;;;;;5.36;88.74;100490.97;5059015;28;20045;-72
2021/03/26 04:36:05;;;;;;;42.50;28.60;;;;;;;5.39;88.71;100492.66;5064267;28;20061;-73
2021/03/26 04:38:49;;;;;;;44.40;28.73;;;;;;;5.41;89.16;100482.84;5062813;28;20049;-71
2021/03/26 04:41:25;;;;;;;43.65;28.85;;;;;;;5.48;88.67;100489.66;5064711;28;20057;-71
2021/03/26 04:44:06;;;;;;;45.35;28.42;;;;;;;5.51;88.36;100488.69;5059614;28;20056;-73
2021/03/26 04:46:48;;;;;;;44.55;27.88;;;;;;;5.52;88.32;100485.13;5057938;28;20110;-73
2021/03/26 04:49:20;;;;;;;43.22;27.50;;;;;;;5.53;88.32;100490.38;5058916;28;20346;-74
2021/03/26 04:51:54;;;;;;;45.15;28.67;;;;;;;5.52;88.15;100486.00;5059581;28;20053;-72
2021/03/26 04:54:51;;;;;;;44.13;28.73;;;;;;;5.56;88.03;100495.56;5059912;28;20080;-73
2021/03/26 04:57:27;;;;;;;41.60;27.90;;;;;;;5.54;88.28;100484.16;5060481;28;20079;-73
2021/03/26 05:00:05;;;;;;;48.22;28.63;;;;;;;5.56;87.57;100482.31;5050076;28;20049;-75
2021/03/26 05:02:56;;;;;;;42.80;26.25;;;;;;;5.48;87.56;100479.09;5039196;28;20131;-72
2021/03/26 05:05:23;;;;;;;45.58;26.92;;;;;;;5.53;87.40;100481.56;5038959;28;20351;-73
2021/03/26 05:07:54;;;;;;;41.08;26.48;;;;;;;5.53;87.38;100485.09;5039035;28;20143;-75
2021/03/26 05:10:24;;;;;;;42.35;26.40;;;;;;;5.62;87.32;100483.03;5040297;28;20057;-72
2021/03/26 05:12:57;;;;;;;40.67;27.10;;;;;;;5.56;87.15;100482.31;5039545;28;20045;-74
2021/03/26 05:15:32;;;;;;;44.03;26.80;;;;;;;5.56;87.15;100479.66;5054217;28;20057;-75
2021/03/26 05:18:01;;;;;;;42.38;25.90;;;;;;;5.56;86.89;100478.81;5054101;28;20075;-74
2021/03/26 05:20:33;;;;;;;43.55;26.35;;;;;;;5.52;86.90;100477.19;5038514;28;20049;-74
2021/03/26 05:23:11;;;;;;;38.30;24.58;;;;;;;5.53;86.59;100481.56;5037278;28;20058;-72
2021/03/26 05:25:51;;;;;;;41.45;25.98;;;;;;;5.50;86.85;100479.88;5038411;28;20045;-73
2021/03/26 05:28:23;;;;;;;40.35;24.75;;;;;;;5.54;86.88;100478.88;5038333;28;20053;-75
2021/03/26 05:30:51;;;;;;;39.63;24.02;;;;;;;5.58;86.71;100482.28;5037267;28;20059;-74
2021/03/26 05:33:33;;;;;;;39.53;25.08;;;;;;;5.62;86.47;100483.88;5036723;28;20065;-74
2021/03/26 05:36:09;;;;;;;43.13;25.92;;;;;;;5.67;86.14;100476.63;5053690;28;20061;-73
2021/03/26 05:38:35;;;;;;;38.22;24.95;;;;;;;5.66;86.22;100482.88;5037828;28;20458;-72
2021/03/26 05:41:12;;;;;;;38.97;24.45;;;;;;;5.65;86.43;100477.59;5038190;28;20053;-75
2021/03/26 05:44:20;;;;;;;36.22;24.15;;;;;;;5.67;86.17;100473.16;5036450;28;20049;-75
2021/03/26 05:47:01;;;;;;;38.70;24.65;;;;;;;5.72;86.16;100481.78;5015319;28;20107;-74
2021/03/26 05:49:48;;;;;;;35.60;24.05;;;;;;;5.75;86.07;100473.72;5037998;28;20049;-72
2021/03/26 05:53:11;;;;;;;43.92;25.38;;;;;;;5.77;86.04;100471.03;5036636;28;20057;-72
2021/03/26 05:56:23;;;;;;;37.17;24.58;;;;;;;5.68;85.75;100454.53;4996290;28;20057;-74
2021/03/26 05:59:10;;;;;;;37.85;24.83;;;;;;;5.79;85.90;100470.06;4957302;28;20082;-73
2021/03/26 06:02:01;;;;;;;38.33;24.98;;;;;;;5.81;85.82;100481.47;5033307;28;20056;-74
2021/03/26 06:04:30;;;;;;;39.30;26.73;;;;;;;5.81;85.96;100476.16;5037539;28;20075;-75
2021/03/26 06:07:37;;;;;;;35.17;24.05;;;;;;;5.83;85.97;100474.31;5037462;28;20053;-74
2021/03/26 06:10:04;;;;;;;34.30;24.52;;;;;;;5.87;86.08;100468.91;4975665;28;20470;-73
2021/03/26 06:12:44;;;;;;;39.58;26.40;;;;;;;5.82;85.73;100443.44;4976610;28;20058;-73
2021/03/26 06:15:31;;;;;;;36.03;25.63;;;;;;;5.96;86.23;100464.16;5026160;28;20049;-74
2021/03/26 06:18:20;;;;;;;37.25;25.77;;;;;;;6.02;86.31;100463.06;5057253;28;20106;-74
2021/03/26 06:21:05;;;;;;;36.58;25.30;;;;;;;6.10;85.96;100468.09;5057168;28;20591;-74
2021/03/26 06:24:05;;;;;;;39.15;26.67;;;;;;;6.13;85.78;100465.31;5056966;28;20488;-74
2021/03/26 06:26:31;;;;;;;38.08;26.30;;;;;;;6.17;86.07;100466.94;5056809;28;20045;-75
2021/03/26 06:29:12;;;;;;;37.83;25.58;;;;;;;6.21;85.91;100463.25;5057074;28;20052;-73
2021/03/26 06:32:02;;;;;;;36.90;26.52;;;;;;;6.29;85.83;100465.59;5056906;28;20045;-75
2021/03/26 06:34:50;;;;;;;39.22;26.08;;;;;;;6.27;86.02;100458.63;5058094;28;20040;-75
2021/03/26 06:37:38;;;;;;;41.38;26.48;;;;;;;6.39;85.74;100461.66;5057344;28;20057;-76
2021/03/26 06:40:14;;;;;;;45.60;28.05;;;;;;;6.45;85.70;100462.34;5056708;28;20056;-77
2021/03/26 06:42:58;;;;;;;37.13;25.23;;;;;;;6.50;85.79;100460.41;5054106;28;20057;-75
2021/03/26 06:45:49;;;;;;;35.03;23.73;;;;;;;6.59;85.40;100464.47;5056717;28;20075;-78
2021/03/26 06:48:35;;;;;;;36.00;24.15;;;;;;;6.66;85.55;100458.84;5056873;28;20048;-75
2021/03/26 06:51:26;;;;;;;34.30;23.92;;;;;;;6.76;84.98;100447.88;5056943;28;20049;-75
2021/03/26 06:54:21;;;;;;;37.78;25.45;;;;;;;6.75;84.82;100444.34;5057520;28;20057;-73
2021/03/26 06:57:23;;;;;;;34.75;24.60;;;;;;;6.84;84.47;100443.13;5059028;28;20044;-74
2021/03/26 07:00:14;;;;;;;35.30;23.45;;;;;;;6.97;84.53;100447.94;5056036;28;20461;-74
2021/03/26 07:03:06;;;;;;;36.40;23.30;;;;;;;7.00;83.98;100439.84;5059659;28;20063;-75
2021/03/26 07:05:36;;;;;;;34.13;23.30;;;;;;;7.10;84.05;100451.81;5072780;28;20068;-73
2021/03/26 07:08:14;;;;;;;35.10;22.80;;;;;;;7.22;83.28;100444.22;5068634;28;20052;-80
2021/03/26 07:11:07;;;;;;;35.88;22.48;;;;;;;7.30;83.22;100452.75;5066098;28;20135;-73
2021/03/26 07:14:11;;;;;;;33.55;23.15;;;;;;;7.35;83.26;100450.75;5057403;28;20140;-74
2021/03/26 07:17:09;;;;;;;34.08;22.80;;;;;;;7.48;82.50;100446.63;5056170;28;20051;-72
2021/03/26 07:20:15;;;;;;;31.55;22.67;;;;;;;7.59;82.17;100454.13;5055114;28;20053;-75
2021/03/26 07:23:00;;;;;;;31.13;21.77;;;;;;;7.66;82.34;100449.44;5056284;28;20174;-74
2021/03/26 07:26:02;;;;;;;30.98;22.10;;;;;;;7.82;81.71;100454.03;5056341;28;20045;-75
2021/03/26 07:28:47;;;;;;;30.23;21.30;;;;;;;7.95;81.52;100457.03;5031128;28;20055;-74
2021/03/26 07:31:35;;;;;;;31.17;21.73;;;;;;;8.04;81.31;100453.94;5055005;28;20048;-72
2021/03/26 07:34:24;;;;;;;31.33;21.27;;;;;;;8.17;80.12;100448.91;5055699;28;20053;-72
2021/03/26 07:37:09;;;;;;;31.90;20.48;;;;;;;8.23;80.55;100453.09;5052493;28;20049;-73
2021/03/26 07:39:42;;;;;;;29.33;19.33;;;;;;;8.33;78.56;100448.22;5057674;28;20118;-73
2021/03/26 07:42:15;;;;;;;31.60;20.52;;;;;;;8.46;78.28;100444.03;5050686;28;20131;-74
2021/03/26 07:44:55;;;;;;;29.00;19.75;;;;;;;8.53;78.28;100452.59;5053520;28;20347;-74
2021/03/26 07:47:50;;;;;;;25.75;18.23;;;;;;;8.65;77.88;100449.38;5055486;28;20136;-73
2021/03/26 07:50:30;;;;;;;27.40;18.77;;;;;;;8.67;76.90;100447.47;5055702;28;20077;-73
2021/03/26 07:53:18;;;;;;;28.27;18.83;;;;;;;8.77;76.39;100450.56;5055950;28;20342;-73
2021/03/26 07:56:12;;;;;;;27.55;18.67;;;;;;;8.84;76.65;100443.16;5053140;28;20052;-72
2021/03/26 07:59:16;;;;;;;24.27;17.13;;;;;;;8.92;75.56;100446.28;5055035;28;20053;-74
2021/03/26 08:02:10;;;;;;;30.30;17.45;;;;;;;9.01;75.22;100446.75;5035557;28;20127;-74
2021/03/26 08:05:02;;;;;;;24.77;17.45;;;;;;;9.05;75.34;100440.34;5035703;28;20053;-74
2021/03/26 08:07:43;;;;;;;27.47;17.23;;;;;;;9.17;74.64;100457.50;5035719;28;20057;-74
2021/03/26 08:10:27;;;;;;;27.33;16.17;;;;;;;9.26;73.61;100461.50;5034470;28;20045;-74
2021/03/26 08:13:18;;;;;;;27.50;16.15;;;;;;;9.23;73.50;100433.22;5035238;28;20088;-74
2021/03/26 08:16:09;;;;;;;27.87;15.97;;;;;;;9.35;73.52;100448.59;5035170;28;20065;-74
2021/03/26 08:18:45;;;;;;;26.55;16.45;;;;;;;9.37;73.50;100459.16;5034071;28;20335;-74
2021/03/26 08:21:14;;;;;;;23.95;16.27;;;;;;;9.47;72.86;100454.22;5035153;28;20046;-74
2021/03/26 08:23:40;;;;;;;24.08;16.95;;;;;;;9.56;72.66;100450.22;5035111;28;20056;-74
2021/03/26 08:26:31;;;;;;;24.60;17.27;;;;;;;9.61;72.61;100453.50;5035005;28;20055;-74
2021/03/26 08:32:11;;;;;;;26.58;16.73;;;;;;;9.70;72.32;100453.00;5012487;28;19928;-74
2021/03/26 08:35:10;;;;;;;26.98;16.92;;;;;;;9.85;71.37;100446.00;5035262;28;20092;-72
2021/03/26 08:37:58;;;;;;;24.10;16.50;;;;;;;9.80;71.11;100436.53;5034999;28;20065;-74
2021/03/26 08:40:43;;;;;;;27.75;15.23;;;;;;;9.87;71.05;100441.44;5035423;28;20099;-74
2021/03/26 08:43:10;;;;;;;27.15;16.08;;;;;;;10.09;70.49;100437.66;5034136;28;20053;-73
2021/03/26 08:45:48;;;;;;;21.95;14.98;;;;;;;10.17;70.17;100440.75;5035080;28;20053;-74
2021/03/26 08:49:05;;;;;;;21.25;13.32;;;;;;;10.31;69.03;100447.13;5035116;28;20061;-74
2021/03/26 08:51:50;;;;;;;19.10;11.23;;;;;;;10.34;65.51;100438.94;4974091;28;20062;-74
2021/03/26 08:54:40;;;;;;;19.38;11.27;;;;;;;10.40;66.11;100441.25;4973988;28;20464;-74
2021/03/26 08:57:15;;;;;;;19.75;10.23;;;;;;;10.50;64.85;100455.00;5025476;28;20132;-74
2021/03/26 08:59:57;;;;;;;15.63;8.70;;;;;;;10.55;64.11;100439.59;5042528;28;20072;-74
2021/03/26 09:02:58;;;;;;;19.20;9.70;;;;;;;10.54;64.53;100442.34;5055322;28;20049;-77
2021/03/26 09:05:49;;;;;;;18.92;9.30;;;;;;;10.58;63.91;100450.06;5055152;28;20076;-75
2021/03/26 09:08:27;;;;;;;;;;;;;;;10.61;65.25;100443.69;5054554;28;20091;-73
2021/03/26 09:11:11;;;;;;;15.02;9.32;;;;;;;10.67;64.08;100448.69;5052536;28;19925;-75
2021/03/26 09:14:07;;;;;;;17.17;10.35;;;;;;;10.77;64.20;100441.03;5038879;28;20049;-75
2021/03/26 09:16:40;;;;;;;17.98;9.77;;;;;;;10.86;64.28;100436.97;5054630;28;20048;-75
2021/03/26 09:19:17;;;;;;;16.38;10.02;;;;;;;10.97;64.08;100437.22;5056639;28;20114;-74
2021/03/26 09:22:04;;;;;;;14.05;8.95;;;;;;;11.08;63.91;100441.94;5057448;28;20060;-74
2021/03/26 09:24:58;;;;;;;16.13;6.82;;;;;;;11.15;61.92;100426.38;5057744;28;20052;-75
2021/03/26 09:27:43;;;;;;;13.38;7.63;;;;;;;11.26;62.73;100428.41;5057877;28;20079;-74
2021/03/26 09:30:29;;;;;;;14.35;7.05;;;;;;;11.34;60.85;100430.63;5058640;28;20439;-74
2021/03/26 09:33:00;;;;;;;12.43;5.80;;;;;;;11.21;58.93;100425.16;5058973;28;20136;-75
2021/03/26 09:35:31;;;;;;;;;;;;;;;11.17;59.77;100427.13;5060783;28;20118;-75
2021/03/26 09:38:14;;;;;;;8.85;5.18;;;;;;;11.25;59.06;100421.34;5059270;28;19921;-75
2021/03/26 09:41:21;;;;;;;14.80;6.40;;;;;;;11.27;58.94;100420.31;5059193;28;20323;-75
2021/03/26 09:43:54;;;;;;;14.90;6.50;;;;;;;11.33;58.58;100418.22;5059859;28;20053;-75
2021/03/26 09:46:28;;;;;;;14.35;5.90;;;;;;;11.38;59.38;100413.44;5059006;28;20131;-75
2021/03/26 09:49:07;;;;;;;20.15;6.60;;;;;;;11.51;59.15;100417.09;5059491;28;20060;-75
2021/03/26 09:51:50;;;;;;;11.45;4.97;;;;;;;11.65;57.34;100420.72;5058109;28;20117;-75
2021/03/26 09:54:39;;;;;;;8.88;4.47;;;;;;;11.75;56.37;100416.56;5057946;28;20052;-73
2021/03/26 09:57:15;;;;;;;9.75;4.10;;;;;;;11.87;55.07;100417.59;5056415;28;20049;-73
2021/03/26 10:00:03;;;;;;;9.63;4.18;;;;;;;11.93;54.67;100406.50;5059882;28;20041;-74
2021/03/26 10:02:46;;;;;;;10.45;4.45;;;;;;;12.00;54.41;100398.97;5057752;28;20056;-75
2021/03/26 10:05:47;;;;;;;12.93;4.32;;;;;;;12.03;53.53;100393.44;5057480;28;20053;-74
2021/03/26 10:11:12;;;;;;;11.23;4.13;;;;;;;12.05;53.84;100399.56;5048498;28;20052;-74
2021/03/26 10:13:48;;;;;;;12.70;4.28;;;;;;;11.95;53.68;100387.72;5057606;28;20120;-73
2021/03/26 10:16:19;;;;;;;10.65;4.50;;;;;;;12.26;53.72;100401.81;5057863;28;20056;-75
2021/03/26 10:18:51;;;;;;;11.07;4.10;;;;;;;12.38;53.12;100378.78;5057498;28;20084;-74
2021/03/26 10:21:23;;;;;;;7.80;3.40;;;;;;;12.54;52.73;100384.00;5056274;28;20056;-75
2021/03/26 10:24:07;;;;;;;7.10;3.35;;;;;;;12.46;52.65;100371.09;5057001;28;20052;-74
2021/03/26 10:27:11;;;;;;;9.57;3.10;;;;;;;12.51;52.01;100354.72;5057180;28;20052;-74
2021/03/26 10:30:01;;;;;;;6.85;3.15;;;;;;;12.66;51.26;100368.03;5056455;28;20056;-74
2021/03/26 10:32:33;;;;;;;6.03;3.08;;;;;;;12.50;51.73;100366.41;5054833;28;20065;-74
2021/03/26 10:35:18;;;;;;;7.97;3.17;;;;;;;12.42;51.95;100358.00;5056008;28;20057;-74
2021/03/26 10:38:05;;;;;;;6.28;3.28;;;;;;;12.40;51.69;100355.44;5055890;28;20056;-74
2021/03/26 10:40:49;;;;;;;13.25;5.10;;;;;;;12.74;51.99;100360.34;5055529;28;20045;-74
2021/03/26 10:43:23;;;;;;;9.95;4.10;;;;;;;12.84;52.11;100345.41;5056684;28;20386;-74
2021/03/26 10:46:04;;;;;;;11.35;4.10;;;;;;;13.02;52.04;100339.75;5056677;28;20354;-74
2021/03/26 10:49:00;;;;;;;7.03;3.92;;;;;;;13.09;51.47;100349.09;5056670;28;20417;-74
2021/03/26 10:51:53;;;;;;;10.02;4.13;;;;;;;13.32;51.74;100319.81;5056833;28;20045;-74
2021/03/26 10:54:28;;;;;;;12.95;4.55;;;;;;;13.78;51.66;100328.28;5056623;28;20060;-74
2021/03/26 10:57:11;;;;;;;9.32;4.22;;;;;;;13.90;49.61;100324.69;5056618;28;20052;-74
2021/03/26 11:00:00;;;;;;;11.15;4.15;;;;;;;13.86;49.81;100317.84;5049977;28;20355;-73
2021/03/26 11:02:42;;;;;;;10.20;4.05;;;;;;;14.10;49.55;100309.84;5035661;28;20092;-75
2021/03/26 11:05:18;;;;;;;11.05;5.05;;;;;;;14.35;48.78;100309.84;5036299;28;20058;-73
2021/03/26 11:08:12;;;;;;;10.20;4.60;;;;;;;14.24;49.49;100313.31;5035508;28;20061;-75
2021/03/26 11:10:51;;;;;;;11.25;5.05;;;;;;;14.39;49.55;100303.28;5039323;28;20052;-78
2021/03/26 11:13:32;;;;;;;11.75;4.88;;;;;;;14.51;49.33;100302.31;5056205;28;20087;-78
2021/03/26 11:16:21;;;;;;;11.52;5.10;;;;;;;14.32;49.29;100299.34;5061410;28;20080;-77
2021/03/26 11:18:59;;;;;;;14.43;4.43;;;;;;;14.33;48.53;100301.03;5063610;28;20056;-77
2021/03/26 11:21:36;;;;;;;9.88;3.30;;;;;;;14.51;48.03;100291.59;5056667;28;20049;-75
2021/03/26 11:24:07;;;;;;;13.45;5.10;;;;;;;14.72;47.53;100290.09;5052777;28;20060;-76
2021/03/26 11:26:42;;;;;;;8.00;3.30;;;;;;;14.91;46.39;100281.47;5053914;28;20059;-77
2021/03/26 11:29:23;;;;;;;6.68;3.20;;;;;;;14.90;46.38;100286.03;5044154;28;20057;-78
2021/03/26 11:32:07;;;;;;;9.05;3.60;;;;;;;14.82;44.71;100276.81;5036256;28;20049;-73
2021/03/26 11:35:00;;;;;;;8.55;3.03;;;;;;;14.58;45.37;100273.19;5047296;28;20055;-75
2021/03/26 11:38:03;;;;;;;7.97;3.03;;;;;;;14.57;46.30;100265.25;5041292;28;20053;-72
2021/03/26 11:40:42;;;;;;;6.05;2.70;;;;;;;14.78;46.13;100271.69;5032922;28;20430;-78
2021/03/26 11:43:26;;;;;;;11.45;2.88;;;;;;;14.90;45.46;100261.84;5044201;28;20055;-75
2021/03/26 11:45:56;;;;;;;7.03;2.75;;;;;;;15.13;45.97;100259.16;5038686;28;20060;-74
2021/03/26 11:48:33;;;;;;;7.00;3.05;;;;;;;15.17;45.45;100262.47;5036004;28;20137;-75
2021/03/26 11:51:29;;;;;;;7.03;2.90;;;;;;;15.00;45.61;100259.28;5035672;28;20471;-76
2021/03/26 11:54:07;;;;;;;11.43;2.85;;;;;;;14.80;45.38;100259.00;5031857;28;20061;-74
2021/03/26 11:56:36;;;;;;;6.07;2.40;;;;;;;14.55;46.34;100256.44;5035782;28;20461;-74
2021/03/26 11:59:17;;;;;;;8.07;2.63;;;;;;;14.35;45.39;100246.25;5037763;28;20049;-74
2021/03/26 12:02:09;;;;;;;9.93;2.40;;;;;;;14.55;45.65;100243.03;5054766;28;20140;-75
2021/03/26 12:04:45;;;;;;;7.22;3.60;;;;;;;14.65;44.19;100233.28;5058440;28;20084;-72
2021/03/26 12:07:18;;;;;;;5.55;2.65;;;;;;;14.84;44.60;100234.56;5059772;28;20057;-73
2021/03/26 12:09:56;;;;;;;6.18;2.42;;;;;;;14.89;44.93;100235.06;5059007;28;20049;-75
2021/03/26 12:12:37;;;;;;;6.18;2.78;;;;;;;14.78;44.33;100233.22;5055131;28;20056;-78
2021/03/26 12:15:08;;;;;;;6.97;3.05;;;;;;;14.76;44.40;100238.72;5055300;28;20080;-73
2021/03/26 12:18:16;;;;;;;8.88;3.25;;;;;;;14.74;44.82;100231.75;5055369;28;20784;-76
2021/03/26 12:20:44;;;;;;;6.95;3.33;;;;;;;14.91;44.49;100233.97;5055118;28;20080;-75
2021/03/26 12:23:39;;;;;;;8.02;3.00;;;;;;;14.92;44.64;100219.56;5055590;28;20057;-76
2021/03/26 12:26:19;;;;;;;7.63;2.78;;;;;;;15.39;44.37;100215.91;5055395;28;20131;-74